Terminal Aerodrome Forecast
Issued by NWS Indianapolis, IN

Home | Current Version | Previous Version | Text Only | Print | Product List | Glossary On
Versions: 1 2 3 4 5 6 7 8 9 10 11 12 13 14 15 16 17 18 19 20 21 22 23 24 25 26
000
FTUS43 KIND 171400 AAA
TAFIND
TAF AMD
KIND 171413Z 1714/1818 VRB04KT P6SM FEW030 SCT250
     FM171800 25005KT P6SM SCT035 BKN090
     FM180000 36005KT P6SM SCT060
     FM180600 VRB04KT 4SM BR SCT060=

USA.gov is the U.S. government's official web portal to all federal, state and local government web resources and services.